sensor_id;sensor_type;location;lat;lon;timestamp;P1;durP1;ratioP1;P2;durP2;ratioP2
2610;SDS011;5612;51.134;17.058;2022-12-18T00:01:35;36.27;;;20.43;;
2610;SDS011;5612;51.134;17.058;2022-12-18T00:04:05;30.20;;;19.13;;
2610;SDS011;5612;51.134;17.058;2022-12-18T00:06:35;35.90;;;16.87;;
2610;SDS011;5612;51.134;17.058;2022-12-18T00:09:04;35.60;;;18.00;;
2610;SDS011;5612;51.134;17.058;2022-12-18T00:11:34;33.43;;;17.00;;
2610;SDS011;5612;51.134;17.058;2022-12-18T00:14:03;34.90;;;18.60;;
2610;SDS011;5612;51.134;17.058;2022-12-18T00:16:32;32.60;;;15.60;;
2610;SDS011;5612;51.134;17.058;2022-12-18T00:19:03;24.03;;;15.47;;
2610;SDS011;5612;51.134;17.058;2022-12-18T00:21:33;30.20;;;16.20;;
2610;SDS011;5612;51.134;17.058;2022-12-18T00:24:02;28.90;;;15.23;;
2610;SDS011;5612;51.134;17.058;2022-12-18T00:26:32;30.73;;;16.63;;
2610;SDS011;5612;51.134;17.058;2022-12-18T00:29:05;34.90;;;17.70;;
2610;SDS011;5612;51.134;17.058;2022-12-18T00:31:35;31.47;;;16.50;;
2610;SDS011;5612;51.134;17.058;2022-12-18T00:34:05;30.80;;;16.87;;
2610;SDS011;5612;51.134;17.058;2022-12-18T00:36:34;35.47;;;18.47;;
2610;SDS011;5612;51.134;17.058;2022-12-18T00:39:04;35.30;;;18.30;;
2610;SDS011;5612;51.134;17.058;2022-12-18T00:41:35;31.83;;;15.30;;
2610;SDS011;5612;51.134;17.058;2022-12-18T00:44:21;31.40;;;16.30;;
2610;SDS011;5612;51.134;17.058;2022-12-18T00:46:49;33.57;;;17.03;;
2610;SDS011;5612;51.134;17.058;2022-12-18T00:49:18;31.20;;;15.37;;
2610;SDS011;5612;51.134;17.058;2022-12-18T00:51:48;32.57;;;15.00;;
2610;SDS011;5612;51.134;17.058;2022-12-18T00:54:17;31.37;;;17.73;;
2610;SDS011;5612;51.134;17.058;2022-12-18T00:56:47;32.23;;;18.27;;
2610;SDS011;5612;51.134;17.058;2022-12-18T00:59:17;29.50;;;15.97;;
2610;SDS011;5612;51.134;17.058;2022-12-18T01:01:46;30.97;;;16.03;;
2610;SDS011;5612;51.134;17.058;2022-12-18T01:04:15;30.07;;;16.93;;
2610;SDS011;5612;51.134;17.058;2022-12-18T01:06:44;33.37;;;16.20;;
2610;SDS011;5612;51.134;17.058;2022-12-18T01:09:13;30.77;;;14.87;;
2610;SDS011;5612;51.134;17.058;2022-12-18T01:11:41;46.93;;;18.20;;
2610;SDS011;5612;51.134;17.058;2022-12-18T01:14:12;35.70;;;16.97;;
2610;SDS011;5612;51.134;17.058;2022-12-18T01:16:40;35.27;;;17.83;;
2610;SDS011;5612;51.134;17.058;2022-12-18T01:19:09;37.07;;;17.83;;
2610;SDS011;5612;51.134;17.058;2022-12-18T01:21:38;32.73;;;17.10;;
2610;SDS011;5612;51.134;17.058;2022-12-18T01:24:07;40.80;;;18.93;;
2610;SDS011;5612;51.134;17.058;2022-12-18T01:26:39;34.43;;;16.87;;
2610;SDS011;5612;51.134;17.058;2022-12-18T01:29:08;32.50;;;16.13;;
2610;SDS011;5612;51.134;17.058;2022-12-18T01:31:38;28.17;;;14.37;;
2610;SDS011;5612;51.134;17.058;2022-12-18T01:34:06;35.93;;;18.20;;
2610;SDS011;5612;51.134;17.058;2022-12-18T01:36:37;33.70;;;16.70;;
2610;SDS011;5612;51.134;17.058;2022-12-18T01:39:07;34.80;;;16.00;;
2610;SDS011;5612;51.134;17.058;2022-12-18T01:41:38;30.13;;;14.87;;
2610;SDS011;5612;51.134;17.058;2022-12-18T01:47:26;31.97;;;15.20;;
2610;SDS011;5612;51.134;17.058;2022-12-18T01:50:00;29.87;;;13.93;;
2610;SDS011;5612;51.134;17.058;2022-12-18T01:52:32;30.13;;;17.50;;
2610;SDS011;5612;51.134;17.058;2022-12-18T01:55:03;33.93;;;17.23;;
2610;SDS011;5612;51.134;17.058;2022-12-18T01:57:34;37.87;;;17.67;;
2610;SDS011;5612;51.134;17.058;2022-12-18T02:00:06;38.23;;;16.67;;
2610;SDS011;5612;51.134;17.058;2022-12-18T02:02:38;34.27;;;17.27;;
2610;SDS011;5612;51.134;17.058;2022-12-18T02:05:09;34.70;;;16.20;;
2610;SDS011;5612;51.134;17.058;2022-12-18T02:07:42;28.60;;;16.07;;
2610;SDS011;5612;51.134;17.058;2022-12-18T02:10:20;32.80;;;18.07;;
2610;SDS011;5612;51.134;17.058;2022-12-18T02:12:56;24.73;;;13.97;;
2610;SDS011;5612;51.134;17.058;2022-12-18T02:15:31;35.40;;;18.20;;
2610;SDS011;5612;51.134;17.058;2022-12-18T02:18:08;30.80;;;17.37;;
2610;SDS011;5612;51.134;17.058;2022-12-18T02:20:44;35.40;;;16.07;;
2610;SDS011;5612;51.134;17.058;2022-12-18T02:23:19;36.77;;;17.20;;
2610;SDS011;5612;51.134;17.058;2022-12-18T02:26:06;30.60;;;15.73;;
2610;SDS011;5612;51.134;17.058;2022-12-18T02:28:42;27.20;;;15.03;;
2610;SDS011;5612;51.134;17.058;2022-12-18T02:31:15;27.73;;;13.90;;
2610;SDS011;5612;51.134;17.058;2022-12-18T02:33:47;27.63;;;14.17;;
2610;SDS011;5612;51.134;17.058;2022-12-18T02:36:18;29.53;;;14.87;;
2610;SDS011;5612;51.134;17.058;2022-12-18T02:38:49;26.40;;;16.77;;
2610;SDS011;5612;51.134;17.058;2022-12-18T02:41:21;24.67;;;14.90;;
2610;SDS011;5612;51.134;17.058;2022-12-18T02:43:53;25.37;;;15.53;;
2610;SDS011;5612;51.134;17.058;2022-12-18T02:46:29;25.90;;;14.67;;
2610;SDS011;5612;51.134;17.058;2022-12-18T02:49:03;24.20;;;15.57;;
2610;SDS011;5612;51.134;17.058;2022-12-18T02:51:42;23.67;;;14.37;;
2610;SDS011;5612;51.134;17.058;2022-12-18T02:54:20;32.13;;;16.30;;
2610;SDS011;5612;51.134;17.058;2022-12-18T02:57:02;26.37;;;14.77;;
2610;SDS011;5612;51.134;17.058;2022-12-18T02:59:38;29.20;;;15.27;;
2610;SDS011;5612;51.134;17.058;2022-12-18T03:02:17;26.20;;;16.20;;
2610;SDS011;5612;51.134;17.058;2022-12-18T03:04:53;33.93;;;14.60;;
2610;SDS011;5612;51.134;17.058;2022-12-18T03:07:33;27.57;;;15.03;;
2610;SDS011;5612;51.134;17.058;2022-12-18T03:10:05;24.93;;;14.83;;
2610;SDS011;5612;51.134;17.058;2022-12-18T03:12:42;29.57;;;16.20;;
2610;SDS011;5612;51.134;17.058;2022-12-18T03:15:16;32.77;;;16.07;;
2610;SDS011;5612;51.134;17.058;2022-12-18T03:17:48;25.50;;;14.60;;
2610;SDS011;5612;51.134;17.058;2022-12-18T03:20:21;32.63;;;18.13;;
2610;SDS011;5612;51.134;17.058;2022-12-18T03:22:53;35.43;;;17.10;;
2610;SDS011;5612;51.134;17.058;2022-12-18T03:25:28;27.17;;;16.33;;
2610;SDS011;5612;51.134;17.058;2022-12-18T03:28:00;29.90;;;16.40;;
2610;SDS011;5612;51.134;17.058;2022-12-18T03:30:31;38.60;;;15.93;;
2610;SDS011;5612;51.134;17.058;2022-12-18T03:33:05;33.07;;;15.83;;
2610;SDS011;5612;51.134;17.058;2022-12-18T03:35:39;28.67;;;16.17;;
2610;SDS011;5612;51.134;17.058;2022-12-18T03:38:10;35.07;;;16.00;;
2610;SDS011;5612;51.134;17.058;2022-12-18T03:40:43;24.67;;;15.83;;
2610;SDS011;5612;51.134;17.058;2022-12-18T03:43:32;33.50;;;17.73;;
2610;SDS011;5612;51.134;17.058;2022-12-18T03:46:11;33.13;;;17.90;;
2610;SDS011;5612;51.134;17.058;2022-12-18T03:48:46;31.00;;;16.97;;
2610;SDS011;5612;51.134;17.058;2022-12-18T03:51:18;26.80;;;15.63;;
2610;SDS011;5612;51.134;17.058;2022-12-18T03:53:54;26.87;;;16.07;;
2610;SDS011;5612;51.134;17.058;2022-12-18T03:56:26;28.77;;;16.13;;
2610;SDS011;5612;51.134;17.058;2022-12-18T03:59:00;35.03;;;17.07;;
2610;SDS011;5612;51.134;17.058;2022-12-18T04:01:32;28.43;;;17.30;;
2610;SDS011;5612;51.134;17.058;2022-12-18T04:04:03;30.57;;;16.70;;
2610;SDS011;5612;51.134;17.058;2022-12-18T04:06:34;29.10;;;16.90;;
2610;SDS011;5612;51.134;17.058;2022-12-18T04:09:04;28.57;;;16.53;;
2610;SDS011;5612;51.134;17.058;2022-12-18T04:11:33;28.77;;;15.80;;
2610;SDS011;5612;51.134;17.058;2022-12-18T04:14:03;30.17;;;17.10;;
2610;SDS011;5612;51.134;17.058;2022-12-18T04:16:33;23.97;;;16.60;;
2610;SDS011;5612;51.134;17.058;2022-12-18T04:19:01;28.47;;;16.53;;
2610;SDS011;5612;51.134;17.058;2022-12-18T04:21:30;30.53;;;18.10;;
2610;SDS011;5612;51.134;17.058;2022-12-18T04:23:59;38.17;;;17.60;;
2610;SDS011;5612;51.134;17.058;2022-12-18T04:26:27;29.00;;;17.60;;
2610;SDS011;5612;51.134;17.058;2022-12-18T04:28:56;30.00;;;16.70;;
2610;SDS011;5612;51.134;17.058;2022-12-18T04:31:26;34.10;;;18.33;;
2610;SDS011;5612;51.134;17.058;2022-12-18T04:33:55;29.67;;;17.63;;
2610;SDS011;5612;51.134;17.058;2022-12-18T04:36:24;33.23;;;18.77;;
2610;SDS011;5612;51.134;17.058;2022-12-18T04:38:54;29.20;;;17.77;;
2610;SDS011;5612;51.134;17.058;2022-12-18T04:41:22;24.90;;;14.60;;
2610;SDS011;5612;51.134;17.058;2022-12-18T04:43:51;27.93;;;16.10;;
2610;SDS011;5612;51.134;17.058;2022-12-18T04:46:20;30.80;;;16.37;;
2610;SDS011;5612;51.134;17.058;2022-12-18T04:48:50;30.07;;;16.20;;
2610;SDS011;5612;51.134;17.058;2022-12-18T04:51:19;31.80;;;17.63;;
2610;SDS011;5612;51.134;17.058;2022-12-18T04:53:52;33.03;;;16.53;;
2610;SDS011;5612;51.134;17.058;2022-12-18T04:56:21;29.60;;;16.83;;
2610;SDS011;5612;51.134;17.058;2022-12-18T04:58:50;30.90;;;17.97;;
2610;SDS011;5612;51.134;17.058;2022-12-18T05:01:18;36.97;;;17.20;;
2610;SDS011;5612;51.134;17.058;2022-12-18T05:03:47;32.43;;;17.80;;
2610;SDS011;5612;51.134;17.058;2022-12-18T05:06:18;27.13;;;16.50;;
2610;SDS011;5612;51.134;17.058;2022-12-18T05:08:47;29.37;;;15.13;;
2610;SDS011;5612;51.134;17.058;2022-12-18T05:11:16;33.73;;;16.23;;
2610;SDS011;5612;51.134;17.058;2022-12-18T05:13:45;29.17;;;16.43;;
2610;SDS011;5612;51.134;17.058;2022-12-18T05:16:14;30.30;;;18.50;;
2610;SDS011;5612;51.134;17.058;2022-12-18T05:18:43;38.77;;;18.70;;
2610;SDS011;5612;51.134;17.058;2022-12-18T05:21:13;34.73;;;17.60;;
2610;SDS011;5612;51.134;17.058;2022-12-18T05:23:42;30.67;;;16.87;;
2610;SDS011;5612;51.134;17.058;2022-12-18T05:26:13;30.10;;;18.67;;
2610;SDS011;5612;51.134;17.058;2022-12-18T05:28:44;23.70;;;14.30;;
2610;SDS011;5612;51.134;17.058;2022-12-18T05:31:13;25.33;;;15.47;;
2610;SDS011;5612;51.134;17.058;2022-12-18T05:33:42;32.20;;;17.10;;
2610;SDS011;5612;51.134;17.058;2022-12-18T05:36:13;28.93;;;15.73;;
2610;SDS011;5612;51.134;17.058;2022-12-18T05:38:42;32.20;;;16.03;;
2610;SDS011;5612;51.134;17.058;2022-12-18T05:41:10;20.93;;;13.43;;
2610;SDS011;5612;51.134;17.058;2022-12-18T05:43:39;33.37;;;14.93;;
2610;SDS011;5612;51.134;17.058;2022-12-18T05:46:11;22.43;;;15.30;;
2610;SDS011;5612;51.134;17.058;2022-12-18T05:48:41;28.70;;;15.40;;
2610;SDS011;5612;51.134;17.058;2022-12-18T05:51:11;30.20;;;17.83;;
2610;SDS011;5612;51.134;17.058;2022-12-18T05:53:42;28.70;;;18.40;;
2610;SDS011;5612;51.134;17.058;2022-12-18T05:56:12;32.20;;;18.83;;
2610;SDS011;5612;51.134;17.058;2022-12-18T05:58:42;32.03;;;17.90;;
2610;SDS011;5612;51.134;17.058;2022-12-18T06:01:12;19.70;;;14.67;;
2610;SDS011;5612;51.134;17.058;2022-12-18T06:03:43;32.30;;;18.43;;
2610;SDS011;5612;51.134;17.058;2022-12-18T06:06:15;32.17;;;20.00;;
2610;SDS011;5612;51.134;17.058;2022-12-18T06:08:45;28.53;;;17.57;;
2610;SDS011;5612;51.134;17.058;2022-12-18T06:11:16;26.53;;;15.67;;
2610;SDS011;5612;51.134;17.058;2022-12-18T06:13:46;31.53;;;21.77;;
2610;SDS011;5612;51.134;17.058;2022-12-18T06:16:23;35.53;;;20.40;;
2610;SDS011;5612;51.134;17.058;2022-12-18T06:18:52;31.57;;;21.33;;
2610;SDS011;5612;51.134;17.058;2022-12-18T06:21:24;35.33;;;18.80;;
2610;SDS011;5612;51.134;17.058;2022-12-18T06:23:53;38.23;;;23.33;;
2610;SDS011;5612;51.134;17.058;2022-12-18T06:26:22;33.67;;;21.77;;
2610;SDS011;5612;51.134;17.058;2022-12-18T06:28:54;29.67;;;18.27;;
2610;SDS011;5612;51.134;17.058;2022-12-18T06:31:23;36.13;;;20.00;;
2610;SDS011;5612;51.134;17.058;2022-12-18T06:33:52;31.30;;;19.90;;
2610;SDS011;5612;51.134;17.058;2022-12-18T06:36:21;33.77;;;18.47;;
2610;SDS011;5612;51.134;17.058;2022-12-18T06:38:52;41.83;;;22.37;;
2610;SDS011;5612;51.134;17.058;2022-12-18T06:41:20;38.90;;;22.73;;
2610;SDS011;5612;51.134;17.058;2022-12-18T06:43:49;32.53;;;19.40;;
2610;SDS011;5612;51.134;17.058;2022-12-18T06:46:25;43.80;;;20.80;;
2610;SDS011;5612;51.134;17.058;2022-12-18T06:48:53;42.20;;;21.93;;
2610;SDS011;5612;51.134;17.058;2022-12-18T06:51:23;39.43;;;23.10;;
2610;SDS011;5612;51.134;17.058;2022-12-18T06:53:53;38.07;;;22.10;;
2610;SDS011;5612;51.134;17.058;2022-12-18T06:56:22;35.13;;;18.97;;
2610;SDS011;5612;51.134;17.058;2022-12-18T06:58:51;38.23;;;21.70;;
2610;SDS011;5612;51.134;17.058;2022-12-18T07:01:20;37.43;;;20.90;;
2610;SDS011;5612;51.134;17.058;2022-12-18T07:03:51;37.47;;;21.57;;
2610;SDS011;5612;51.134;17.058;2022-12-18T07:06:22;39.57;;;20.10;;
2610;SDS011;5612;51.134;17.058;2022-12-18T07:08:53;37.20;;;19.70;;
2610;SDS011;5612;51.134;17.058;2022-12-18T07:11:22;37.37;;;20.20;;
2610;SDS011;5612;51.134;17.058;2022-12-18T07:13:51;35.50;;;20.83;;
2610;SDS011;5612;51.134;17.058;2022-12-18T07:16:21;44.27;;;21.83;;
2610;SDS011;5612;51.134;17.058;2022-12-18T07:18:51;33.47;;;22.37;;
2610;SDS011;5612;51.134;17.058;2022-12-18T07:21:20;41.53;;;21.30;;
2610;SDS011;5612;51.134;17.058;2022-12-18T07:23:49;37.17;;;20.60;;
2610;SDS011;5612;51.134;17.058;2022-12-18T07:26:20;37.90;;;23.27;;
2610;SDS011;5612;51.134;17.058;2022-12-18T07:28:50;32.60;;;18.90;;
2610;SDS011;5612;51.134;17.058;2022-12-18T07:31:22;34.87;;;22.30;;
2610;SDS011;5612;51.134;17.058;2022-12-18T07:33:51;38.83;;;23.60;;
2610;SDS011;5612;51.134;17.058;2022-12-18T07:36:20;42.87;;;24.63;;
2610;SDS011;5612;51.134;17.058;2022-12-18T07:38:49;40.30;;;23.17;;
2610;SDS011;5612;51.134;17.058;2022-12-18T07:41:20;43.23;;;21.80;;
2610;SDS011;5612;51.134;17.058;2022-12-18T07:43:49;39.93;;;21.80;;
2610;SDS011;5612;51.134;17.058;2022-12-18T07:46:18;45.87;;;23.10;;
2610;SDS011;5612;51.134;17.058;2022-12-18T07:48:47;42.67;;;23.37;;
2610;SDS011;5612;51.134;17.058;2022-12-18T07:51:16;48.93;;;24.50;;
2610;SDS011;5612;51.134;17.058;2022-12-18T07:53:45;51.37;;;27.27;;
2610;SDS011;5612;51.134;17.058;2022-12-18T07:56:17;46.03;;;25.17;;
2610;SDS011;5612;51.134;17.058;2022-12-18T07:58:54;52.53;;;26.90;;
2610;SDS011;5612;51.134;17.058;2022-12-18T08:01:24;51.67;;;29.53;;
2610;SDS011;5612;51.134;17.058;2022-12-18T08:03:53;53.13;;;28.43;;
2610;SDS011;5612;51.134;17.058;2022-12-18T08:06:21;48.10;;;30.27;;
2610;SDS011;5612;51.134;17.058;2022-12-18T08:08:51;50.13;;;29.07;;
2610;SDS011;5612;51.134;17.058;2022-12-18T08:11:23;45.30;;;25.80;;
2610;SDS011;5612;51.134;17.058;2022-12-18T08:13:53;45.73;;;26.60;;
2610;SDS011;5612;51.134;17.058;2022-12-18T08:16:23;47.33;;;27.50;;
2610;SDS011;5612;51.134;17.058;2022-12-18T08:18:52;36.27;;;19.83;;
2610;SDS011;5612;51.134;17.058;2022-12-18T08:21:22;43.30;;;27.17;;
2610;SDS011;5612;51.134;17.058;2022-12-18T08:23:53;47.70;;;27.10;;
2610;SDS011;5612;51.134;17.058;2022-12-18T08:26:25;37.13;;;24.50;;
2610;SDS011;5612;51.134;17.058;2022-12-18T08:28:55;32.13;;;18.90;;
2610;SDS011;5612;51.134;17.058;2022-12-18T08:31:26;28.00;;;17.30;;
2610;SDS011;5612;51.134;17.058;2022-12-18T08:33:56;32.67;;;17.50;;
2610;SDS011;5612;51.134;17.058;2022-12-18T08:36:25;29.90;;;17.10;;
2610;SDS011;5612;51.134;17.058;2022-12-18T08:38:54;29.57;;;16.73;;
2610;SDS011;5612;51.134;17.058;2022-12-18T08:41:26;35.53;;;20.30;;
2610;SDS011;5612;51.134;17.058;2022-12-18T08:43:55;34.17;;;21.20;;
2610;SDS011;5612;51.134;17.058;2022-12-18T08:46:42;32.10;;;21.40;;
2610;SDS011;5612;51.134;17.058;2022-12-18T08:49:11;38.10;;;23.90;;
2610;SDS011;5612;51.134;17.058;2022-12-18T08:51:41;35.20;;;19.37;;
2610;SDS011;5612;51.134;17.058;2022-12-18T08:54:10;30.33;;;19.33;;
2610;SDS011;5612;51.134;17.058;2022-12-18T08:56:41;40.10;;;21.03;;
2610;SDS011;5612;51.134;17.058;2022-12-18T08:59:10;37.20;;;21.20;;
2610;SDS011;5612;51.134;17.058;2022-12-18T09:01:45;32.63;;;19.30;;
2610;SDS011;5612;51.134;17.058;2022-12-18T09:04:15;30.00;;;19.27;;
2610;SDS011;5612;51.134;17.058;2022-12-18T09:06:44;33.67;;;21.70;;
2610;SDS011;5612;51.134;17.058;2022-12-18T09:09:13;32.73;;;19.97;;
2610;SDS011;5612;51.134;17.058;2022-12-18T09:11:44;34.00;;;16.93;;
2610;SDS011;5612;51.134;17.058;2022-12-18T09:14:18;32.47;;;16.20;;
2610;SDS011;5612;51.134;17.058;2022-12-18T09:16:49;32.03;;;18.83;;
2610;SDS011;5612;51.134;17.058;2022-12-18T09:19:22;32.00;;;19.10;;
2610;SDS011;5612;51.134;17.058;2022-12-18T09:21:52;32.67;;;18.97;;
2610;SDS011;5612;51.134;17.058;2022-12-18T09:24:23;32.10;;;18.53;;
2610;SDS011;5612;51.134;17.058;2022-12-18T09:26:55;25.43;;;16.23;;
2610;SDS011;5612;51.134;17.058;2022-12-18T09:29:25;31.53;;;20.70;;
2610;SDS011;5612;51.134;17.058;2022-12-18T09:31:54;36.63;;;19.87;;
2610;SDS011;5612;51.134;17.058;2022-12-18T09:34:24;24.83;;;15.50;;
2610;SDS011;5612;51.134;17.058;2022-12-18T09:36:54;25.27;;;15.83;;
2610;SDS011;5612;51.134;17.058;2022-12-18T09:39:25;38.30;;;22.60;;
2610;SDS011;5612;51.134;17.058;2022-12-18T09:41:59;30.17;;;15.57;;
2610;SDS011;5612;51.134;17.058;2022-12-18T09:44:30;29.23;;;20.63;;
2610;SDS011;5612;51.134;17.058;2022-12-18T09:47:12;34.20;;;21.17;;
2610;SDS011;5612;51.134;17.058;2022-12-18T09:49:47;28.30;;;18.17;;
2610;SDS011;5612;51.134;17.058;2022-12-18T09:52:24;24.70;;;15.33;;
2610;SDS011;5612;51.134;17.058;2022-12-18T09:55:09;28.13;;;16.50;;
2610;SDS011;5612;51.134;17.058;2022-12-18T09:57:49;27.00;;;16.23;;
2610;SDS011;5612;51.134;17.058;2022-12-18T10:00:24;36.28;;;23.92;;
2610;SDS011;5612;51.134;17.058;2022-12-18T10:02:58;35.70;;;21.77;;
2610;SDS011;5612;51.134;17.058;2022-12-18T10:05:40;27.80;;;17.23;;
2610;SDS011;5612;51.134;17.058;2022-12-18T10:08:18;34.03;;;19.63;;
2610;SDS011;5612;51.134;17.058;2022-12-18T10:10:56;25.80;;;18.03;;
2610;SDS011;5612;51.134;17.058;2022-12-18T10:13:31;34.43;;;19.90;;
2610;SDS011;5612;51.134;17.058;2022-12-18T10:16:09;26.90;;;17.57;;
2610;SDS011;5612;51.134;17.058;2022-12-18T10:18:49;33.07;;;18.60;;
2610;SDS011;5612;51.134;17.058;2022-12-18T10:21:30;31.83;;;18.83;;
2610;SDS011;5612;51.134;17.058;2022-12-18T10:24:08;30.10;;;19.50;;
2610;SDS011;5612;51.134;17.058;2022-12-18T10:26:43;36.30;;;19.70;;
2610;SDS011;5612;51.134;17.058;2022-12-18T10:29:15;35.93;;;19.20;;
2610;SDS011;5612;51.134;17.058;2022-12-18T10:31:45;35.67;;;20.63;;
2610;SDS011;5612;51.134;17.058;2022-12-18T10:34:14;26.20;;;18.00;;
2610;SDS011;5612;51.134;17.058;2022-12-18T10:36:43;27.83;;;17.67;;
2610;SDS011;5612;51.134;17.058;2022-12-18T10:39:15;33.97;;;21.00;;
2610;SDS011;5612;51.134;17.058;2022-12-18T10:41:46;38.20;;;22.33;;
2610;SDS011;5612;51.134;17.058;2022-12-18T10:44:18;36.83;;;21.00;;
2610;SDS011;5612;51.134;17.058;2022-12-18T10:46:53;29.00;;;20.70;;
2610;SDS011;5612;51.134;17.058;2022-12-18T10:49:24;34.17;;;19.30;;
2610;SDS011;5612;51.134;17.058;2022-12-18T10:52:04;34.00;;;23.33;;
2610;SDS011;5612;51.134;17.058;2022-12-18T10:54:38;35.23;;;20.63;;
2610;SDS011;5612;51.134;17.058;2022-12-18T10:57:14;36.70;;;23.00;;
2610;SDS011;5612;51.134;17.058;2022-12-18T10:59:52;38.37;;;22.10;;
2610;SDS011;5612;51.134;17.058;2022-12-18T11:02:26;26.23;;;17.00;;
2610;SDS011;5612;51.134;17.058;2022-12-18T11:05:03;33.63;;;18.40;;
2610;SDS011;5612;51.134;17.058;2022-12-18T11:07:51;27.57;;;19.27;;
2610;SDS011;5612;51.134;17.058;2022-12-18T11:10:22;44.63;;;22.97;;
2610;SDS011;5612;51.134;17.058;2022-12-18T11:13:08;38.00;;;22.00;;
2610;SDS011;5612;51.134;17.058;2022-12-18T11:15:46;41.07;;;22.47;;
2610;SDS011;5612;51.134;17.058;2022-12-18T11:18:17;36.77;;;20.73;;
2610;SDS011;5612;51.134;17.058;2022-12-18T11:20:50;39.73;;;23.17;;
2610;SDS011;5612;51.134;17.058;2022-12-18T11:23:24;42.90;;;22.33;;
2610;SDS011;5612;51.134;17.058;2022-12-18T11:25:55;35.23;;;21.47;;
2610;SDS011;5612;51.134;17.058;2022-12-18T11:28:29;38.83;;;19.87;;
2610;SDS011;5612;51.134;17.058;2022-12-18T11:31:11;41.90;;;24.20;;
2610;SDS011;5612;51.134;17.058;2022-12-18T11:33:46;36.10;;;18.80;;
2610;SDS011;5612;51.134;17.058;2022-12-18T11:36:42;36.27;;;14.17;;
2610;SDS011;5612;51.134;17.058;2022-12-18T11:39:15;46.43;;;22.97;;
2610;SDS011;5612;51.134;17.058;2022-12-18T11:41:49;42.97;;;24.23;;
2610;SDS011;5612;51.134;17.058;2022-12-18T11:44:42;38.27;;;18.43;;
2610;SDS011;5612;51.134;17.058;2022-12-18T11:47:19;42.33;;;24.67;;
2610;SDS011;5612;51.134;17.058;2022-12-18T11:49:56;32.37;;;17.13;;
2610;SDS011;5612;51.134;17.058;2022-12-18T11:52:31;43.23;;;25.40;;
2610;SDS011;5612;51.134;17.058;2022-12-18T11:55:09;42.30;;;24.30;;
2610;SDS011;5612;51.134;17.058;2022-12-18T11:57:44;44.13;;;23.13;;
2610;SDS011;5612;51.134;17.058;2022-12-18T12:00:21;32.00;;;19.37;;
2610;SDS011;5612;51.134;17.058;2022-12-18T12:06:05;46.67;;;25.10;;
2610;SDS011;5612;51.134;17.058;2022-12-18T12:08:43;35.53;;;20.00;;
2610;SDS011;5612;51.134;17.058;2022-12-18T12:11:22;38.67;;;17.37;;
2610;SDS011;5612;51.134;17.058;2022-12-18T12:14:04;36.90;;;23.60;;
2610;SDS011;5612;51.134;17.058;2022-12-18T12:16:47;36.30;;;21.97;;
2610;SDS011;5612;51.134;17.058;2022-12-18T12:19:25;35.53;;;22.20;;
2610;SDS011;5612;51.134;17.058;2022-12-18T12:22:05;42.77;;;24.60;;
2610;SDS011;5612;51.134;17.058;2022-12-18T12:24:47;41.60;;;24.40;;
2610;SDS011;5612;51.134;17.058;2022-12-18T12:27:25;36.70;;;18.30;;
2610;SDS011;5612;51.134;17.058;2022-12-18T12:30:05;41.67;;;23.10;;
2610;SDS011;5612;51.134;17.058;2022-12-18T12:32:40;39.07;;;22.47;;
2610;SDS011;5612;51.134;17.058;2022-12-18T12:35:25;38.70;;;23.90;;
2610;SDS011;5612;51.134;17.058;2022-12-18T12:38:05;44.50;;;24.80;;
2610;SDS011;5612;51.134;17.058;2022-12-18T12:40:39;41.00;;;23.40;;
2610;SDS011;5612;51.134;17.058;2022-12-18T12:43:28;36.20;;;24.97;;
2610;SDS011;5612;51.134;17.058;2022-12-18T12:46:08;40.53;;;22.93;;
2610;SDS011;5612;51.134;17.058;2022-12-18T12:48:40;42.60;;;23.80;;
2610;SDS011;5612;51.134;17.058;2022-12-18T12:51:16;35.27;;;20.87;;
2610;SDS011;5612;51.134;17.058;2022-12-18T12:53:48;42.67;;;24.10;;
2610;SDS011;5612;51.134;17.058;2022-12-18T12:56:19;38.87;;;26.50;;
2610;SDS011;5612;51.134;17.058;2022-12-18T12:58:51;40.20;;;24.00;;
2610;SDS011;5612;51.134;17.058;2022-12-18T13:01:28;47.47;;;26.13;;
2610;SDS011;5612;51.134;17.058;2022-12-18T13:04:08;42.13;;;25.60;;
2610;SDS011;5612;51.134;17.058;2022-12-18T13:06:50;44.43;;;25.30;;
2610;SDS011;5612;51.134;17.058;2022-12-18T13:09:29;46.87;;;26.40;;
2610;SDS011;5612;51.134;17.058;2022-12-18T13:12:02;56.00;;;28.30;;
2610;SDS011;5612;51.134;17.058;2022-12-18T13:14:49;52.20;;;28.60;;
2610;SDS011;5612;51.134;17.058;2022-12-18T13:17:27;42.03;;;25.90;;
2610;SDS011;5612;51.134;17.058;2022-12-18T13:20:09;44.30;;;27.67;;
2610;SDS011;5612;51.134;17.058;2022-12-18T13:22:44;41.40;;;24.07;;
2610;SDS011;5612;51.134;17.058;2022-12-18T13:25:28;50.90;;;27.10;;
2610;SDS011;5612;51.134;17.058;2022-12-18T13:28:07;48.77;;;25.80;;
2610;SDS011;5612;51.134;17.058;2022-12-18T13:30:51;44.97;;;24.37;;
2610;SDS011;5612;51.134;17.058;2022-12-18T13:33:39;45.43;;;25.10;;
2610;SDS011;5612;51.134;17.058;2022-12-18T13:36:31;30.40;;;16.37;;
2610;SDS011;5612;51.134;17.058;2022-12-18T13:39:22;44.83;;;23.67;;
2610;SDS011;5612;51.134;17.058;2022-12-18T13:45:41;45.63;;;25.50;;
2610;SDS011;5612;51.134;17.058;2022-12-18T13:48:16;43.47;;;22.70;;
2610;SDS011;5612;51.134;17.058;2022-12-18T13:50:55;41.33;;;19.27;;
2610;SDS011;5612;51.134;17.058;2022-12-18T13:53:36;40.90;;;23.30;;
2610;SDS011;5612;51.134;17.058;2022-12-18T13:56:16;44.30;;;23.23;;
2610;SDS011;5612;51.134;17.058;2022-12-18T13:58:47;45.47;;;24.70;;
2610;SDS011;5612;51.134;17.058;2022-12-18T14:01:46;43.93;;;25.00;;
2610;SDS011;5612;51.134;17.058;2022-12-18T14:04:20;35.47;;;20.53;;
2610;SDS011;5612;51.134;17.058;2022-12-18T14:06:56;39.73;;;22.60;;
2610;SDS011;5612;51.134;17.058;2022-12-18T14:09:30;38.63;;;22.63;;
2610;SDS011;5612;51.134;17.058;2022-12-18T14:12:11;51.10;;;24.27;;
2610;SDS011;5612;51.134;17.058;2022-12-18T14:15:02;35.93;;;20.17;;
2610;SDS011;5612;51.134;17.058;2022-12-18T14:17:33;45.30;;;23.70;;
2610;SDS011;5612;51.134;17.058;2022-12-18T14:20:05;34.13;;;21.80;;
2610;SDS011;5612;51.134;17.058;2022-12-18T14:22:43;39.53;;;21.60;;
2610;SDS011;5612;51.134;17.058;2022-12-18T14:25:17;41.73;;;20.27;;
2610;SDS011;5612;51.134;17.058;2022-12-18T14:27:51;44.70;;;26.13;;
2610;SDS011;5612;51.134;17.058;2022-12-18T14:30:30;40.23;;;22.30;;
2610;SDS011;5612;51.134;17.058;2022-12-18T14:33:02;40.60;;;24.63;;
2610;SDS011;5612;51.134;17.058;2022-12-18T14:35:38;40.17;;;22.27;;
2610;SDS011;5612;51.134;17.058;2022-12-18T14:38:18;41.17;;;21.80;;
2610;SDS011;5612;51.134;17.058;2022-12-18T14:40:54;42.30;;;21.50;;
2610;SDS011;5612;51.134;17.058;2022-12-18T14:43:28;55.17;;;32.13;;
2610;SDS011;5612;51.134;17.058;2022-12-18T14:46:01;44.13;;;23.87;;
2610;SDS011;5612;51.134;17.058;2022-12-18T14:48:33;45.30;;;24.00;;
2610;SDS011;5612;51.134;17.058;2022-12-18T14:51:06;64.73;;;29.40;;
2610;SDS011;5612;51.134;17.058;2022-12-18T14:53:44;61.20;;;34.80;;
2610;SDS011;5612;51.134;17.058;2022-12-18T14:56:21;60.80;;;33.30;;
2610;SDS011;5612;51.134;17.058;2022-12-18T14:58:55;51.97;;;27.07;;
2610;SDS011;5612;51.134;17.058;2022-12-18T15:01:26;59.70;;;31.43;;
2610;SDS011;5612;51.134;17.058;2022-12-18T15:03:58;53.57;;;32.57;;
2610;SDS011;5612;51.134;17.058;2022-12-18T15:06:30;49.40;;;26.87;;
2610;SDS011;5612;51.134;17.058;2022-12-18T15:09:21;58.03;;;35.00;;
2610;SDS011;5612;51.134;17.058;2022-12-18T15:11:55;66.63;;;35.37;;
2610;SDS011;5612;51.134;17.058;2022-12-18T15:14:34;61.50;;;32.40;;
2610;SDS011;5612;51.134;17.058;2022-12-18T15:17:15;57.93;;;35.30;;
2610;SDS011;5612;51.134;17.058;2022-12-18T15:19:48;67.40;;;27.80;;